sensor_id;sensor_type;location;lat;lon;timestamp;P1;durP1;ratioP1;P2;durP2;ratioP2
23800;SDS011;12081;48.614;10.226;2024-02-15T00:00:23;4.93;;;2.80;;
23800;SDS011;12081;48.614;10.226;2024-02-15T00:03:10;5.30;;;2.87;;
23800;SDS011;12081;48.614;10.226;2024-02-15T00:05:59;4.47;;;3.13;;
23800;SDS011;12081;48.614;10.226;2024-02-15T00:08:43;3.23;;;2.90;;
23800;SDS011;12081;48.614;10.226;2024-02-15T00:11:28;4.27;;;2.83;;
23800;SDS011;12081;48.614;10.226;2024-02-15T00:14:12;5.90;;;2.90;;
23800;SDS011;12081;48.614;10.226;2024-02-15T00:16:56;5.17;;;2.97;;
23800;SDS011;12081;48.614;10.226;2024-02-15T00:19:40;3.20;;;2.90;;
23800;SDS011;12081;48.614;10.226;2024-02-15T00:22:25;3.83;;;2.87;;
23800;SDS011;12081;48.614;10.226;2024-02-15T00:25:09;3.53;;;2.77;;
23800;SDS011;12081;48.614;10.226;2024-02-15T00:27:54;3.83;;;2.97;;
23800;SDS011;12081;48.614;10.226;2024-02-15T00:30:38;4.70;;;3.00;;
23800;SDS011;12081;48.614;10.226;2024-02-15T00:33:22;4.00;;;2.90;;
23800;SDS011;12081;48.614;10.226;2024-02-15T00:36:06;3.73;;;2.50;;
23800;SDS011;12081;48.614;10.226;2024-02-15T00:38:52;3.60;;;2.80;;
23800;SDS011;12081;48.614;10.226;2024-02-15T00:41:36;6.00;;;3.57;;
23800;SDS011;12081;48.614;10.226;2024-02-15T00:44:19;7.20;;;3.03;;
23800;SDS011;12081;48.614;10.226;2024-02-15T00:47:03;4.57;;;2.90;;
23800;SDS011;12081;48.614;10.226;2024-02-15T00:49:48;6.10;;;3.00;;
23800;SDS011;12081;48.614;10.226;2024-02-15T00:52:34;3.57;;;2.73;;
23800;SDS011;12081;48.614;10.226;2024-02-15T00:55:18;5.10;;;2.80;;
23800;SDS011;12081;48.614;10.226;2024-02-15T00:58:03;3.33;;;2.60;;
23800;SDS011;12081;48.614;10.226;2024-02-15T01:00:47;3.87;;;2.80;;
23800;SDS011;12081;48.614;10.226;2024-02-15T01:03:31;5.67;;;2.93;;
23800;SDS011;12081;48.614;10.226;2024-02-15T01:06:15;6.87;;;2.70;;
23800;SDS011;12081;48.614;10.226;2024-02-15T01:09:00;3.97;;;2.93;;
23800;SDS011;12081;48.614;10.226;2024-02-15T01:11:46;5.97;;;3.00;;
23800;SDS011;12081;48.614;10.226;2024-02-15T01:14:30;4.03;;;2.87;;
23800;SDS011;12081;48.614;10.226;2024-02-15T01:17:15;3.30;;;2.57;;
23800;SDS011;12081;48.614;10.226;2024-02-15T01:20:00;5.00;;;3.63;;
23800;SDS011;12081;48.614;10.226;2024-02-15T01:22:45;5.27;;;3.13;;
23800;SDS011;12081;48.614;10.226;2024-02-15T01:25:29;4.03;;;2.90;;
23800;SDS011;12081;48.614;10.226;2024-02-15T01:28:13;5.83;;;3.30;;
23800;SDS011;12081;48.614;10.226;2024-02-15T01:30:58;3.93;;;3.03;;
23800;SDS011;12081;48.614;10.226;2024-02-15T01:33:43;3.43;;;2.67;;
23800;SDS011;12081;48.614;10.226;2024-02-15T01:36:27;5.73;;;3.27;;
23800;SDS011;12081;48.614;10.226;2024-02-15T01:39:12;4.50;;;3.20;;
23800;SDS011;12081;48.614;10.226;2024-02-15T01:41:56;3.80;;;3.00;;
23800;SDS011;12081;48.614;10.226;2024-02-15T01:44:42;5.53;;;3.27;;
23800;SDS011;12081;48.614;10.226;2024-02-15T01:47:31;4.00;;;3.00;;
23800;SDS011;12081;48.614;10.226;2024-02-15T01:50:15;5.47;;;3.17;;
23800;SDS011;12081;48.614;10.226;2024-02-15T01:53:01;5.30;;;3.57;;
23800;SDS011;12081;48.614;10.226;2024-02-15T01:55:45;3.80;;;3.20;;
23800;SDS011;12081;48.614;10.226;2024-02-15T01:58:30;4.33;;;3.33;;
23800;SDS011;12081;48.614;10.226;2024-02-15T02:01:16;4.27;;;3.23;;
23800;SDS011;12081;48.614;10.226;2024-02-15T02:04:01;4.83;;;3.73;;
23800;SDS011;12081;48.614;10.226;2024-02-15T02:06:46;5.70;;;3.50;;
23800;SDS011;12081;48.614;10.226;2024-02-15T02:09:30;5.23;;;3.27;;
23800;SDS011;12081;48.614;10.226;2024-02-15T02:12:15;6.53;;;4.03;;
23800;SDS011;12081;48.614;10.226;2024-02-15T02:15:00;6.40;;;3.60;;
23800;SDS011;12081;48.614;10.226;2024-02-15T02:17:47;4.83;;;3.70;;
23800;SDS011;12081;48.614;10.226;2024-02-15T02:20:35;6.20;;;3.30;;
23800;SDS011;12081;48.614;10.226;2024-02-15T02:23:19;7.27;;;3.40;;
23800;SDS011;12081;48.614;10.226;2024-02-15T02:26:09;6.47;;;3.63;;
23800;SDS011;12081;48.614;10.226;2024-02-15T02:28:54;4.67;;;3.83;;
23800;SDS011;12081;48.614;10.226;2024-02-15T02:31:38;5.73;;;3.73;;
23800;SDS011;12081;48.614;10.226;2024-02-15T02:34:22;7.37;;;3.60;;
23800;SDS011;12081;48.614;10.226;2024-02-15T02:37:06;5.20;;;3.57;;
23800;SDS011;12081;48.614;10.226;2024-02-15T02:39:51;5.83;;;4.00;;
23800;SDS011;12081;48.614;10.226;2024-02-15T02:42:36;6.83;;;3.97;;
23800;SDS011;12081;48.614;10.226;2024-02-15T02:45:29;5.57;;;3.60;;
23800;SDS011;12081;48.614;10.226;2024-02-15T02:48:13;5.80;;;3.40;;
23800;SDS011;12081;48.614;10.226;2024-02-15T02:50:58;5.03;;;3.87;;
23800;SDS011;12081;48.614;10.226;2024-02-15T02:53:43;6.67;;;3.73;;
23800;SDS011;12081;48.614;10.226;2024-02-15T02:56:27;5.33;;;3.77;;
23800;SDS011;12081;48.614;10.226;2024-02-15T02:59:13;5.10;;;3.87;;
23800;SDS011;12081;48.614;10.226;2024-02-15T03:01:59;7.17;;;3.97;;
23800;SDS011;12081;48.614;10.226;2024-02-15T03:04:44;5.90;;;3.73;;
23800;SDS011;12081;48.614;10.226;2024-02-15T03:07:28;5.47;;;3.43;;
23800;SDS011;12081;48.614;10.226;2024-02-15T03:10:13;6.37;;;4.03;;
23800;SDS011;12081;48.614;10.226;2024-02-15T03:12:58;5.63;;;3.67;;
23800;SDS011;12081;48.614;10.226;2024-02-15T03:15:44;6.17;;;3.77;;
23800;SDS011;12081;48.614;10.226;2024-02-15T03:18:31;7.33;;;4.37;;
23800;SDS011;12081;48.614;10.226;2024-02-15T03:21:17;7.37;;;4.10;;
23800;SDS011;12081;48.614;10.226;2024-02-15T03:24:02;6.13;;;4.27;;
23800;SDS011;12081;48.614;10.226;2024-02-15T03:26:47;6.67;;;3.93;;
23800;SDS011;12081;48.614;10.226;2024-02-15T03:29:31;8.17;;;4.77;;
23800;SDS011;12081;48.614;10.226;2024-02-15T03:32:19;9.80;;;4.13;;
23800;SDS011;12081;48.614;10.226;2024-02-15T03:35:04;6.17;;;4.57;;
23800;SDS011;12081;48.614;10.226;2024-02-15T03:37:48;6.03;;;4.00;;
23800;SDS011;12081;48.614;10.226;2024-02-15T03:40:36;5.93;;;4.10;;
23800;SDS011;12081;48.614;10.226;2024-02-15T03:43:24;5.70;;;3.93;;
23800;SDS011;12081;48.614;10.226;2024-02-15T03:46:08;8.43;;;4.30;;
23800;SDS011;12081;48.614;10.226;2024-02-15T03:48:56;6.10;;;4.27;;
23800;SDS011;12081;48.614;10.226;2024-02-15T03:51:41;9.53;;;4.67;;
23800;SDS011;12081;48.614;10.226;2024-02-15T03:54:27;7.67;;;3.80;;
23800;SDS011;12081;48.614;10.226;2024-02-15T03:57:13;5.37;;;3.57;;
23800;SDS011;12081;48.614;10.226;2024-02-15T04:00:00;6.30;;;3.67;;
23800;SDS011;12081;48.614;10.226;2024-02-15T04:02:45;9.00;;;5.07;;
23800;SDS011;12081;48.614;10.226;2024-02-15T04:05:32;7.40;;;5.13;;
23800;SDS011;12081;48.614;10.226;2024-02-15T04:08:16;6.80;;;4.83;;
23800;SDS011;12081;48.614;10.226;2024-02-15T04:11:02;6.37;;;4.03;;
23800;SDS011;12081;48.614;10.226;2024-02-15T04:13:48;4.47;;;3.67;;
23800;SDS011;12081;48.614;10.226;2024-02-15T04:16:32;6.17;;;3.67;;
23800;SDS011;12081;48.614;10.226;2024-02-15T04:19:19;7.13;;;3.90;;
23800;SDS011;12081;48.614;10.226;2024-02-15T04:22:05;6.43;;;4.03;;
23800;SDS011;12081;48.614;10.226;2024-02-15T04:24:51;5.57;;;3.67;;
23800;SDS011;12081;48.614;10.226;2024-02-15T04:27:35;4.73;;;3.30;;
23800;SDS011;12081;48.614;10.226;2024-02-15T04:30:20;5.07;;;3.17;;
23800;SDS011;12081;48.614;10.226;2024-02-15T04:33:07;3.73;;;3.00;;
23800;SDS011;12081;48.614;10.226;2024-02-15T04:35:51;4.50;;;3.13;;
23800;SDS011;12081;48.614;10.226;2024-02-15T04:38:36;4.40;;;3.27;;
23800;SDS011;12081;48.614;10.226;2024-02-15T04:41:21;4.73;;;3.20;;
23800;SDS011;12081;48.614;10.226;2024-02-15T04:44:08;4.53;;;3.00;;
23800;SDS011;12081;48.614;10.226;2024-02-15T04:46:55;5.57;;;3.70;;
23800;SDS011;12081;48.614;10.226;2024-02-15T04:49:40;7.47;;;3.70;;
23800;SDS011;12081;48.614;10.226;2024-02-15T04:52:25;5.90;;;3.87;;
23800;SDS011;12081;48.614;10.226;2024-02-15T04:55:10;5.33;;;3.73;;
23800;SDS011;12081;48.614;10.226;2024-02-15T04:57:54;7.63;;;4.50;;
23800;SDS011;12081;48.614;10.226;2024-02-15T05:00:38;6.67;;;4.47;;
23800;SDS011;12081;48.614;10.226;2024-02-15T05:03:22;6.40;;;4.30;;
23800;SDS011;12081;48.614;10.226;2024-02-15T05:06:06;5.73;;;4.07;;
23800;SDS011;12081;48.614;10.226;2024-02-15T05:08:51;6.33;;;4.73;;
23800;SDS011;12081;48.614;10.226;2024-02-15T05:11:39;8.80;;;4.93;;
23800;SDS011;12081;48.614;10.226;2024-02-15T05:14:24;9.87;;;5.60;;
23800;SDS011;12081;48.614;10.226;2024-02-15T05:17:10;10.43;;;6.57;;
23800;SDS011;12081;48.614;10.226;2024-02-15T05:19:54;11.30;;;6.70;;
23800;SDS011;12081;48.614;10.226;2024-02-15T05:22:42;15.00;;;9.90;;
23800;SDS011;12081;48.614;10.226;2024-02-15T05:25:29;38.03;;;23.90;;
23800;SDS011;12081;48.614;10.226;2024-02-15T05:28:16;48.40;;;29.50;;
23800;SDS011;12081;48.614;10.226;2024-02-15T05:31:08;45.47;;;27.80;;
23800;SDS011;12081;48.614;10.226;2024-02-15T05:33:54;42.57;;;26.60;;
23800;SDS011;12081;48.614;10.226;2024-02-15T05:39:26;27.77;;;18.70;;
23800;SDS011;12081;48.614;10.226;2024-02-15T05:42:10;31.37;;;19.07;;
23800;SDS011;12081;48.614;10.226;2024-02-15T05:44:54;28.33;;;17.97;;
23800;SDS011;12081;48.614;10.226;2024-02-15T05:47:38;24.40;;;15.93;;
23800;SDS011;12081;48.614;10.226;2024-02-15T05:50:23;16.57;;;10.27;;
23800;SDS011;12081;48.614;10.226;2024-02-15T05:53:07;14.70;;;9.47;;
23800;SDS011;12081;48.614;10.226;2024-02-15T05:55:51;11.80;;;7.13;;
23800;SDS011;12081;48.614;10.226;2024-02-15T05:58:36;9.20;;;7.03;;
23800;SDS011;12081;48.614;10.226;2024-02-15T06:01:20;9.13;;;5.63;;
23800;SDS011;12081;48.614;10.226;2024-02-15T06:04:04;10.23;;;6.23;;
23800;SDS011;12081;48.614;10.226;2024-02-15T06:06:51;10.97;;;6.17;;
23800;SDS011;12081;48.614;10.226;2024-02-15T06:09:37;11.37;;;5.60;;
23800;SDS011;12081;48.614;10.226;2024-02-15T06:12:23;5.43;;;4.70;;
23800;SDS011;12081;48.614;10.226;2024-02-15T06:15:07;8.60;;;5.67;;
23800;SDS011;12081;48.614;10.226;2024-02-15T06:17:58;6.67;;;4.83;;
23800;SDS011;12081;48.614;10.226;2024-02-15T06:20:42;6.67;;;4.50;;
23800;SDS011;12081;48.614;10.226;2024-02-15T06:23:26;7.40;;;5.00;;
23800;SDS011;12081;48.614;10.226;2024-02-15T06:26:11;7.80;;;5.97;;
23800;SDS011;12081;48.614;10.226;2024-02-15T06:28:55;7.97;;;6.03;;
23800;SDS011;12081;48.614;10.226;2024-02-15T06:31:58;6.47;;;5.37;;
23800;SDS011;12081;48.614;10.226;2024-02-15T06:35:01;7.07;;;5.47;;
23800;SDS011;12081;48.614;10.226;2024-02-15T06:38:04;9.67;;;5.97;;
23800;SDS011;12081;48.614;10.226;2024-02-15T06:41:07;8.37;;;5.93;;
23800;SDS011;12081;48.614;10.226;2024-02-15T06:43:52;8.27;;;6.17;;
23800;SDS011;12081;48.614;10.226;2024-02-15T06:46:36;8.53;;;6.47;;
23800;SDS011;12081;48.614;10.226;2024-02-15T06:49:20;8.47;;;6.23;;
23800;SDS011;12081;48.614;10.226;2024-02-15T06:52:04;8.97;;;6.93;;
23800;SDS011;12081;48.614;10.226;2024-02-15T06:54:51;9.13;;;7.13;;
23800;SDS011;12081;48.614;10.226;2024-02-15T06:57:36;10.20;;;6.90;;
23800;SDS011;12081;48.614;10.226;2024-02-15T07:00:20;9.07;;;6.07;;
23800;SDS011;12081;48.614;10.226;2024-02-15T07:03:13;9.23;;;6.50;;
23800;SDS011;12081;48.614;10.226;2024-02-15T07:05:42;6.77;;;6.07;;
23800;SDS011;12081;48.614;10.226;2024-02-15T07:08:27;6.97;;;5.63;;
23800;SDS011;12081;48.614;10.226;2024-02-15T07:11:11;7.53;;;6.07;;
23800;SDS011;12081;48.614;10.226;2024-02-15T07:13:55;6.60;;;4.87;;
23800;SDS011;12081;48.614;10.226;2024-02-15T07:16:39;5.63;;;4.30;;
23800;SDS011;12081;48.614;10.226;2024-02-15T07:19:24;6.20;;;3.53;;
23800;SDS011;12081;48.614;10.226;2024-02-15T07:22:10;4.80;;;3.33;;
23800;SDS011;12081;48.614;10.226;2024-02-15T07:24:55;3.90;;;3.10;;
23800;SDS011;12081;48.614;10.226;2024-02-15T07:27:39;5.87;;;3.00;;
23800;SDS011;12081;48.614;10.226;2024-02-15T07:30:23;3.90;;;3.13;;
23800;SDS011;12081;48.614;10.226;2024-02-15T07:33:08;4.83;;;3.37;;
23800;SDS011;12081;48.614;10.226;2024-02-15T07:35:52;7.00;;;3.30;;
23800;SDS011;12081;48.614;10.226;2024-02-15T07:38:37;7.57;;;5.70;;
23800;SDS011;12081;48.614;10.226;2024-02-15T07:41:21;5.33;;;4.83;;
23800;SDS011;12081;48.614;10.226;2024-02-15T07:44:06;7.03;;;5.23;;
23800;SDS011;12081;48.614;10.226;2024-02-15T07:46:51;8.60;;;4.80;;
23800;SDS011;12081;48.614;10.226;2024-02-15T07:49:36;7.77;;;4.80;;
23800;SDS011;12081;48.614;10.226;2024-02-15T07:52:20;8.20;;;4.60;;
23800;SDS011;12081;48.614;10.226;2024-02-15T07:55:04;7.33;;;4.73;;
23800;SDS011;12081;48.614;10.226;2024-02-15T07:57:52;5.87;;;4.63;;
23800;SDS011;12081;48.614;10.226;2024-02-15T08:00:36;9.20;;;4.80;;
23800;SDS011;12081;48.614;10.226;2024-02-15T08:03:21;9.93;;;5.00;;
23800;SDS011;12081;48.614;10.226;2024-02-15T08:06:05;8.70;;;4.83;;
23800;SDS011;12081;48.614;10.226;2024-02-15T08:08:50;5.57;;;4.13;;
23800;SDS011;12081;48.614;10.226;2024-02-15T08:11:35;9.03;;;5.40;;
23800;SDS011;12081;48.614;10.226;2024-02-15T08:14:21;10.02;;;4.63;;
23800;SDS011;12081;48.614;10.226;2024-02-15T08:17:05;7.60;;;5.18;;
23800;SDS011;12081;48.614;10.226;2024-02-15T08:19:51;7.53;;;4.43;;
23800;SDS011;12081;48.614;10.226;2024-02-15T08:22:35;5.72;;;4.55;;
23800;SDS011;12081;48.614;10.226;2024-02-15T08:25:23;5.85;;;4.30;;
23800;SDS011;12081;48.614;10.226;2024-02-15T08:28:07;6.68;;;4.82;;
23800;SDS011;12081;48.614;10.226;2024-02-15T08:30:52;7.50;;;4.95;;
23800;SDS011;12081;48.614;10.226;2024-02-15T08:33:36;8.80;;;5.22;;
23800;SDS011;12081;48.614;10.226;2024-02-15T08:36:22;8.63;;;4.97;;
23800;SDS011;12081;48.614;10.226;2024-02-15T08:39:06;8.27;;;5.13;;
23800;SDS011;12081;48.614;10.226;2024-02-15T08:41:52;7.50;;;4.65;;
23800;SDS011;12081;48.614;10.226;2024-02-15T08:44:37;6.68;;;4.60;;
23800;SDS011;12081;48.614;10.226;2024-02-15T08:47:21;8.05;;;4.72;;
23800;SDS011;12081;48.614;10.226;2024-02-15T08:50:05;8.18;;;5.30;;
23800;SDS011;12081;48.614;10.226;2024-02-15T08:52:52;8.20;;;4.53;;
23800;SDS011;12081;48.614;10.226;2024-02-15T08:55:36;6.65;;;4.70;;
23800;SDS011;12081;48.614;10.226;2024-02-15T08:58:21;6.93;;;4.35;;
23800;SDS011;12081;48.614;10.226;2024-02-15T09:01:05;5.93;;;4.53;;
23800;SDS011;12081;48.614;10.226;2024-02-15T09:03:51;5.93;;;4.38;;
23800;SDS011;12081;48.614;10.226;2024-02-15T09:06:35;4.68;;;4.10;;
23800;SDS011;12081;48.614;10.226;2024-02-15T09:09:19;5.18;;;4.50;;
23800;SDS011;12081;48.614;10.226;2024-02-15T09:12:03;5.55;;;4.30;;
23800;SDS011;12081;48.614;10.226;2024-02-15T09:14:49;6.15;;;4.05;;
23800;SDS011;12081;48.614;10.226;2024-02-15T09:17:36;7.65;;;4.55;;
23800;SDS011;12081;48.614;10.226;2024-02-15T09:20:22;6.10;;;4.85;;
23800;SDS011;12081;48.614;10.226;2024-02-15T09:23:09;6.55;;;5.00;;
23800;SDS011;12081;48.614;10.226;2024-02-15T09:25:55;5.82;;;4.50;;
23800;SDS011;12081;48.614;10.226;2024-02-15T09:28:40;6.43;;;5.40;;
23800;SDS011;12081;48.614;10.226;2024-02-15T09:31:24;6.90;;;4.78;;
23800;SDS011;12081;48.614;10.226;2024-02-15T09:34:08;7.53;;;5.28;;
23800;SDS011;12081;48.614;10.226;2024-02-15T09:36:52;11.35;;;5.47;;
23800;SDS011;12081;48.614;10.226;2024-02-15T09:39:37;7.78;;;5.00;;
23800;SDS011;12081;48.614;10.226;2024-02-15T09:42:21;12.60;;;6.30;;
23800;SDS011;12081;48.614;10.226;2024-02-15T09:45:07;8.40;;;5.40;;
23800;SDS011;12081;48.614;10.226;2024-02-15T09:47:59;8.75;;;4.72;;
23800;SDS011;12081;48.614;10.226;2024-02-15T09:50:49;9.02;;;5.03;;
23800;SDS011;12081;48.614;10.226;2024-02-15T09:53:36;6.75;;;5.40;;
23800;SDS011;12081;48.614;10.226;2024-02-15T09:56:20;9.60;;;6.03;;
23800;SDS011;12081;48.614;10.226;2024-02-15T09:59:08;18.15;;;9.02;;
23800;SDS011;12081;48.614;10.226;2024-02-15T10:01:52;4.65;;;4.25;;
23800;SDS011;12081;48.614;10.226;2024-02-15T10:04:42;8.13;;;6.93;;
23800;SDS011;12081;48.614;10.226;2024-02-15T10:07:26;3.85;;;3.55;;
23800;SDS011;12081;48.614;10.226;2024-02-15T10:10:14;4.32;;;3.83;;
23800;SDS011;12081;48.614;10.226;2024-02-15T10:13:12;6.80;;;3.85;;
23800;SDS011;12081;48.614;10.226;2024-02-15T10:15:57;4.20;;;3.55;;
23800;SDS011;12081;48.614;10.226;2024-02-15T10:18:41;4.80;;;3.50;;
23800;SDS011;12081;48.614;10.226;2024-02-15T10:21:26;4.50;;;3.20;;
23800;SDS011;12081;48.614;10.226;2024-02-15T10:24:12;6.13;;;4.10;;
23800;SDS011;12081;48.614;10.226;2024-02-15T10:27:01;5.45;;;3.88;;
23800;SDS011;12081;48.614;10.226;2024-02-15T10:29:47;4.72;;;3.47;;
23800;SDS011;12081;48.614;10.226;2024-02-15T10:32:36;4.50;;;3.45;;
23800;SDS011;12081;48.614;10.226;2024-02-15T10:35:20;4.90;;;3.35;;
23800;SDS011;12081;48.614;10.226;2024-02-15T10:38:09;5.15;;;3.67;;
23800;SDS011;12081;48.614;10.226;2024-02-15T10:40:54;3.97;;;3.30;;
23800;SDS011;12081;48.614;10.226;2024-02-15T10:43:48;5.47;;;2.97;;
23800;SDS011;12081;48.614;10.226;2024-02-15T10:46:33;5.35;;;3.25;;
23800;SDS011;12081;48.614;10.226;2024-02-15T10:49:18;4.78;;;2.70;;
23800;SDS011;12081;48.614;10.226;2024-02-15T10:52:06;3.97;;;2.65;;
23800;SDS011;12081;48.614;10.226;2024-02-15T10:54:56;4.53;;;3.13;;
23800;SDS011;12081;48.614;10.226;2024-02-15T10:57:47;3.85;;;2.50;;
23800;SDS011;12081;48.614;10.226;2024-02-15T11:00:35;3.85;;;2.78;;
23800;SDS011;12081;48.614;10.226;2024-02-15T11:03:24;4.38;;;2.80;;
23800;SDS011;12081;48.614;10.226;2024-02-15T11:06:14;4.07;;;3.08;;
23800;SDS011;12081;48.614;10.226;2024-02-15T11:08:59;4.85;;;3.05;;
23800;SDS011;12081;48.614;10.226;2024-02-15T11:11:45;5.25;;;3.00;;
23800;SDS011;12081;48.614;10.226;2024-02-15T11:14:31;4.85;;;3.15;;
23800;SDS011;12081;48.614;10.226;2024-02-15T11:23:23;4.57;;;2.30;;
23800;SDS011;12081;48.614;10.226;2024-02-15T11:32:41;4.03;;;2.35;;
23800;SDS011;12081;48.614;10.226;2024-02-15T11:38:53;2.53;;;1.90;;
23800;SDS011;12081;48.614;10.226;2024-02-15T11:41:37;2.97;;;1.98;;
23800;SDS011;12081;48.614;10.226;2024-02-15T11:44:21;3.65;;;2.22;;
23800;SDS011;12081;48.614;10.226;2024-02-15T11:47:06;2.40;;;1.52;;
23800;SDS011;12081;48.614;10.226;2024-02-15T11:49:52;2.15;;;1.30;;
23800;SDS011;12081;48.614;10.226;2024-02-15T11:52:47;3.97;;;1.80;;
23800;SDS011;12081;48.614;10.226;2024-02-15T11:55:35;2.55;;;1.60;;
23800;SDS011;12081;48.614;10.226;2024-02-15T11:58:19;2.53;;;1.70;;
23800;SDS011;12081;48.614;10.226;2024-02-15T12:01:12;3.95;;;2.15;;
23800;SDS011;12081;48.614;10.226;2024-02-15T12:04:15;3.97;;;1.70;;
23800;SDS011;12081;48.614;10.226;2024-02-15T12:07:18;3.47;;;2.03;;
23800;SDS011;12081;48.614;10.226;2024-02-15T12:10:21;2.85;;;1.60;;
23800;SDS011;12081;48.614;10.226;2024-02-15T12:13:24;2.97;;;1.67;;
23800;SDS011;12081;48.614;10.226;2024-02-15T12:16:27;3.42;;;1.70;;
23800;SDS011;12081;48.614;10.226;2024-02-15T12:19:30;3.38;;;1.90;;
23800;SDS011;12081;48.614;10.226;2024-02-15T12:22:15;6.30;;;2.22;;
23800;SDS011;12081;48.614;10.226;2024-02-15T12:25:28;3.53;;;2.08;;
23800;SDS011;12081;48.614;10.226;2024-02-15T12:28:12;3.33;;;2.22;;
23800;SDS011;12081;48.614;10.226;2024-02-15T12:30:58;3.28;;;2.00;;
23800;SDS011;12081;48.614;10.226;2024-02-15T12:33:42;2.95;;;1.65;;
23800;SDS011;12081;48.614;10.226;2024-02-15T12:36:26;3.70;;;2.05;;
23800;SDS011;12081;48.614;10.226;2024-02-15T12:39:11;2.85;;;1.80;;
23800;SDS011;12081;48.614;10.226;2024-02-15T12:41:56;2.75;;;1.70;;
23800;SDS011;12081;48.614;10.226;2024-02-15T12:44:44;2.63;;;1.45;;
23800;SDS011;12081;48.614;10.226;2024-02-15T12:47:30;2.67;;;1.70;;
23800;SDS011;12081;48.614;10.226;2024-02-15T12:50:15;4.57;;;2.17;;
23800;SDS011;12081;48.614;10.226;2024-02-15T12:53:00;3.28;;;1.58;;
23800;SDS011;12081;48.614;10.226;2024-02-15T12:55:46;3.53;;;1.90;;
23800;SDS011;12081;48.614;10.226;2024-02-15T12:58:39;2.85;;;1.73;;
23800;SDS011;12081;48.614;10.226;2024-02-15T13:01:24;3.03;;;1.67;;
23800;SDS011;12081;48.614;10.226;2024-02-15T13:04:09;2.75;;;1.73;;
23800;SDS011;12081;48.614;10.226;2024-02-15T13:06:54;3.10;;;1.80;;
23800;SDS011;12081;48.614;10.226;2024-02-15T13:09:40;3.08;;;2.15;;
23800;SDS011;12081;48.614;10.226;2024-02-15T13:12:24;2.35;;;1.67;;
23800;SDS011;12081;48.614;10.226;2024-02-15T13:15:08;3.05;;;1.85;;
23800;SDS011;12081;48.614;10.226;2024-02-15T13:17:58;3.53;;;1.85;;
23800;SDS011;12081;48.614;10.226;2024-02-15T13:20:43;3.00;;;1.60;;
23800;SDS011;12081;48.614;10.226;2024-02-15T13:23:27;4.65;;;1.70;;
23800;SDS011;12081;48.614;10.226;2024-02-15T13:26:12;3.13;;;1.55;;
23800;SDS011;12081;48.614;10.226;2024-02-15T13:28:56;2.72;;;1.23;;
23800;SDS011;12081;48.614;10.226;2024-02-15T13:31:40;2.50;;;1.60;;
23800;SDS011;12081;48.614;10.226;2024-02-15T13:34:26;3.70;;;1.50;;
23800;SDS011;12081;48.614;10.226;2024-02-15T13:37:11;2.30;;;1.38;;
23800;SDS011;12081;48.614;10.226;2024-02-15T13:39:59;3.38;;;1.80;;
23800;SDS011;12081;48.614;10.226;2024-02-15T13:42:44;3.25;;;1.40;;
23800;SDS011;12081;48.614;10.226;2024-02-15T13:45:42;2.58;;;1.55;;
23800;SDS011;12081;48.614;10.226;2024-02-15T13:48:28;2.35;;;1.73;;
23800;SDS011;12081;48.614;10.226;2024-02-15T13:51:14;2.15;;;1.40;;
23800;SDS011;12081;48.614;10.226;2024-02-15T13:53:58;4.15;;;1.50;;
23800;SDS011;12081;48.614;10.226;2024-02-15T13:56:42;2.80;;;1.70;;
23800;SDS011;12081;48.614;10.226;2024-02-15T13:59:26;4.33;;;1.47;;
23800;SDS011;12081;48.614;10.226;2024-02-15T14:02:12;2.57;;;1.60;;
23800;SDS011;12081;48.614;10.226;2024-02-15T14:04:56;4.93;;;1.43;;
23800;SDS011;12081;48.614;10.226;2024-02-15T14:07:40;2.37;;;1.40;;
23800;SDS011;12081;48.614;10.226;2024-02-15T14:10:25;5.30;;;1.53;;
23800;SDS011;12081;48.614;10.226;2024-02-15T14:13:12;2.53;;;1.20;;
23800;SDS011;12081;48.614;10.226;2024-02-15T14:15:58;2.43;;;1.50;;
23800;SDS011;12081;48.614;10.226;2024-02-15T14:18:43;3.30;;;1.30;;
23800;SDS011;12081;48.614;10.226;2024-02-15T14:21:28;2.07;;;1.37;;
23800;SDS011;12081;48.614;10.226;2024-02-15T14:24:12;1.90;;;1.50;;
23800;SDS011;12081;48.614;10.226;2024-02-15T14:26:57;4.87;;;2.23;;
23800;SDS011;12081;48.614;10.226;2024-02-15T14:29:41;3.53;;;1.50;;
23800;SDS011;12081;48.614;10.226;2024-02-15T14:32:28;5.03;;;2.13;;
23800;SDS011;12081;48.614;10.226;2024-02-15T14:35:31;3.63;;;1.90;;
23800;SDS011;12081;48.614;10.226;2024-02-15T14:38:19;4.17;;;2.10;;
23800;SDS011;12081;48.614;10.226;2024-02-15T14:41:04;2.13;;;1.60;;
23800;SDS011;12081;48.614;10.226;2024-02-15T14:43:49;4.97;;;1.90;;
23800;SDS011;12081;48.614;10.226;2024-02-15T14:46:34;3.67;;;1.83;;
23800;SDS011;12081;48.614;10.226;2024-02-15T14:49:19;3.93;;;1.90;;
23800;SDS011;12081;48.614;10.226;2024-02-15T14:52:03;3.77;;;1.40;;
23800;SDS011;12081;48.614;10.226;2024-02-15T14:54:48;3.17;;;1.90;;
23800;SDS011;12081;48.614;10.226;2024-02-15T14:57:32;3.27;;;1.13;;
23800;SDS011;12081;48.614;10.226;2024-02-15T15:00:21;3.50;;;1.73;;
23800;SDS011;12081;48.614;10.226;2024-02-15T15:03:05;3.80;;;1.70;;
23800;SDS011;12081;48.614;10.226;2024-02-15T15:05:49;2.60;;;1.43;;
23800;SDS011;12081;48.614;10.226;2024-02-15T15:08:52;4.17;;;1.50;;
23800;SDS011;12081;48.614;10.226;2024-02-15T15:11:55;3.47;;;1.90;;
23800;SDS011;12081;48.614;10.226;2024-02-15T15:14:58;3.97;;;1.77;;
23800;SDS011;12081;48.614;10.226;2024-02-15T15:17:45;3.43;;;1.67;;
23800;SDS011;12081;48.614;10.226;2024-02-15T15:20:30;4.07;;;1.80;;
23800;SDS011;12081;48.614;10.226;2024-02-15T15:23:16;2.10;;;1.40;;
23800;SDS011;12081;48.614;10.226;2024-02-15T15:26:01;3.87;;;1.57;;
23800;SDS011;12081;48.614;10.226;2024-02-15T15:28:45;2.90;;;1.80;;
23800;SDS011;12081;48.614;10.226;2024-02-15T15:31:29;4.03;;;1.53;;
23800;SDS011;12081;48.614;10.226;2024-02-15T15:34:13;3.97;;;1.87;;
23800;SDS011;12081;48.614;10.226;2024-02-15T15:36:57;4.13;;;2.07;;
23800;SDS011;12081;48.614;10.226;2024-02-15T15:39:41;2.67;;;1.90;;
23800;SDS011;12081;48.614;10.226;2024-02-15T15:42:25;3.57;;;1.80;;
23800;SDS011;12081;48.614;10.226;2024-02-15T15:45:11;4.23;;;2.07;;
23800;SDS011;12081;48.614;10.226;2024-02-15T15:47:55;5.00;;;3.50;;
23800;SDS011;12081;48.614;10.226;2024-02-15T15:50:39;9.60;;;6.00;;
23800;SDS011;12081;48.614;10.226;2024-02-15T15:53:26;4.83;;;4.20;;
23800;SDS011;12081;48.614;10.226;2024-02-15T15:56:11;5.93;;;3.43;;
23800;SDS011;12081;48.614;10.226;2024-02-15T15:58:55;5.20;;;2.93;;
23800;SDS011;12081;48.614;10.226;2024-02-15T16:01:50;4.40;;;2.13;;
23800;SDS011;12081;48.614;10.226;2024-02-15T16:04:35;2.77;;;1.80;;
23800;SDS011;12081;48.614;10.226;2024-02-15T16:07:25;4.70;;;1.80;;
23800;SDS011;12081;48.614;10.226;2024-02-15T16:10:09;4.50;;;1.60;;
23800;SDS011;12081;48.614;10.226;2024-02-15T16:12:54;2.90;;;1.37;;
23800;SDS011;12081;48.614;10.226;2024-02-15T16:15:43;3.53;;;1.57;;
23800;SDS011;12081;48.614;10.226;2024-02-15T16:18:29;8.63;;;2.43;;
23800;SDS011;12081;48.614;10.226;2024-02-15T16:21:13;3.80;;;1.60;;
23800;SDS011;12081;48.614;10.226;2024-02-15T16:23:57;3.07;;;1.83;;
23800;SDS011;12081;48.614;10.226;2024-02-15T16:26:42;4.57;;;2.40;;
23800;SDS011;12081;48.614;10.226;2024-02-15T16:29:26;10.67;;;4.13;;
23800;SDS011;12081;48.614;10.226;2024-02-15T16:32:10;14.63;;;7.17;;
23800;SDS011;12081;48.614;10.226;2024-02-15T16:34:54;13.17;;;5.33;;
23800;SDS011;12081;48.614;10.226;2024-02-15T16:37:41;5.57;;;2.93;;
23800;SDS011;12081;48.614;10.226;2024-02-15T16:40:26;6.63;;;2.10;;
23800;SDS011;12081;48.614;10.226;2024-02-15T16:43:11;6.40;;;2.27;;